createdAt,value
2018-06-03T00:00:51.307Z,99.80
2018-06-03T00:01:54.557Z,99.90
2018-06-03T00:02:58.528Z,99.70
2018-06-03T00:04:02.572Z,99.70
2018-06-03T00:05:05.775Z,99.70
2018-06-03T00:06:09.005Z,99.70
2018-06-03T00:07:12.990Z,99.70
2018-06-03T00:08:17.100Z,99.70
2018-06-03T00:09:21.106Z,99.70
2018-06-03T00:10:25.077Z,99.70
2018-06-03T00:11:28.989Z,99.70
2018-06-03T00:12:32.984Z,99.70
2018-06-03T00:13:36.969Z,99.90
2018-06-03T00:14:40.195Z,99.70
2018-06-03T00:15:43.414Z,99.80
2018-06-03T00:16:46.652Z,99.90
2018-06-03T00:17:50.659Z,99.90
2018-06-03T00:18:53.904Z,99.90
2018-06-03T00:19:57.113Z,99.90
2018-06-03T00:21:12.929Z,99.90
2018-06-03T00:22:17.581Z,99.90
2018-06-03T00:23:20.799Z,99.90
2018-06-03T00:24:24.082Z,99.90
2018-06-03T00:25:27.326Z,99.90
2018-06-03T00:26:30.571Z,99.90
2018-06-03T00:27:33.981Z,99.90
2018-06-03T00:28:37.944Z,99.90
2018-06-03T00:29:41.182Z,99.90
2018-06-03T00:30:44.547Z,99.90
2018-06-03T00:31:47.754Z,99.90
2018-06-03T00:32:50.969Z,99.90
2018-06-03T00:33:54.202Z,99.90
2018-06-03T00:34:57.451Z,99.90
2018-06-03T00:36:13.370Z,99.90
2018-06-03T00:37:17.337Z,99.90
2018-06-03T00:38:21.328Z,99.90
2018-06-03T00:39:25.311Z,99.90
2018-06-03T00:40:28.633Z,99.90
2018-06-03T00:41:31.757Z,99.90
2018-06-03T00:42:35.042Z,99.90
2018-06-03T00:43:38.270Z,99.90
2018-06-03T00:44:42.343Z,99.90
2018-06-03T00:45:45.589Z,99.90
2018-06-03T00:46:48.782Z,99.90
2018-06-03T00:47:52.012Z,99.90
2018-06-03T00:48:55.273Z,99.90
2018-06-03T00:49:58.591Z,99.90
2018-06-03T00:51:02.600Z,99.90
2018-06-03T00:52:06.602Z,99.90
2018-06-03T00:53:10.583Z,99.90
2018-06-03T00:54:14.592Z,99.90
2018-06-03T00:55:17.804Z,99.90
2018-06-03T00:56:33.024Z,99.90
2018-06-03T00:57:36.235Z,99.90
2018-06-03T00:58:39.480Z,99.90
2018-06-03T00:59:42.804Z,99.90
2018-06-03T01:00:46.016Z,99.90
2018-06-03T01:01:49.220Z,99.90
2018-06-03T01:02:52.438Z,99.90
2018-06-03T01:03:56.452Z,99.90
2018-06-03T01:05:00.435Z,99.90
2018-06-03T01:06:04.439Z,99.90
2018-06-03T01:07:08.446Z,99.90
2018-06-03T01:08:12.422Z,99.90
2018-06-03T01:09:15.639Z,99.90
2018-06-03T01:10:18.924Z,99.90
2018-06-03T01:11:22.134Z,99.90
2018-06-03T01:12:25.351Z,99.90
2018-06-03T01:13:28.554Z,99.90
2018-06-03T01:14:32.538Z,99.90
2018-06-03T01:15:35.808Z,99.90
2018-06-03T01:16:39.067Z,99.90
2018-06-03T01:17:42.285Z,99.90
2018-06-03T01:18:45.482Z,99.90
2018-06-03T01:19:49.509Z,99.90
2018-06-03T01:20:53.489Z,99.90
2018-06-03T01:21:57.511Z,99.90
2018-06-03T01:23:00.736Z,99.90
2018-06-03T01:24:03.968Z,99.90
2018-06-03T01:25:07.171Z,99.90
2018-06-03T01:26:10.429Z,99.90
2018-06-03T01:27:14.406Z,99.90
2018-06-03T01:28:17.639Z,99.90
2018-06-03T01:29:20.861Z,99.90
2018-06-03T01:30:24.081Z,99.90
2018-06-03T01:31:28.328Z,99.90
2018-06-03T01:32:31.528Z,99.90
2018-06-03T01:33:34.751Z,99.90
2018-06-03T01:34:37.971Z,99.90
2018-06-03T01:35:41.194Z,99.90
2018-06-03T01:36:45.333Z,99.90
2018-06-03T01:37:48.641Z,99.90
2018-06-03T01:38:51.876Z,99.90
2018-06-03T01:39:55.861Z,99.90
2018-06-03T01:40:59.222Z,99.90
2018-06-03T01:42:02.743Z,99.90
2018-06-03T01:43:06.445Z,99.90
2018-06-03T01:44:09.662Z,99.90
2018-06-03T01:45:12.886Z,99.90
2018-06-03T01:46:16.101Z,99.90
2018-06-03T01:47:19.393Z,99.90
2018-06-03T01:48:23.358Z,99.90
2018-06-03T01:49:26.573Z,99.90
2018-06-03T01:50:29.995Z,99.90
2018-06-03T01:51:33.224Z,99.90
2018-06-03T01:52:37.217Z,99.90
2018-06-03T01:53:40.481Z,99.90
2018-06-03T01:54:43.806Z,99.90
2018-06-03T01:55:47.797Z,99.90
2018-06-03T01:56:51.788Z,99.90
2018-06-03T01:57:55.821Z,99.90
2018-06-03T01:58:59.050Z,99.90
2018-06-03T02:00:02.295Z,99.90
2018-06-03T02:01:05.755Z,99.90
2018-06-03T02:02:09.764Z,99.90
2018-06-03T02:03:13.733Z,99.90
2018-06-03T02:04:16.945Z,99.90
2018-06-03T02:05:20.958Z,99.90
2018-06-03T02:06:24.284Z,99.90
2018-06-03T02:07:27.492Z,99.90
2018-06-03T02:08:30.808Z,99.90
2018-06-03T02:09:34.029Z,99.90
2018-06-03T02:10:37.243Z,99.90
2018-06-03T02:11:40.471Z,99.90
2018-06-03T02:12:43.696Z,99.90
2018-06-03T02:13:46.904Z,99.90
2018-06-03T02:14:50.878Z,99.90
2018-06-03T02:15:54.088Z,99.90
2018-06-03T02:16:58.067Z,99.90
2018-06-03T02:18:01.283Z,99.90
2018-06-03T02:19:04.540Z,99.90
2018-06-03T02:20:08.589Z,99.90
2018-06-03T02:21:11.825Z,99.90
2018-06-03T02:22:15.269Z,99.90
2018-06-03T02:23:18.536Z,99.90
2018-06-03T02:24:21.731Z,99.90
2018-06-03T02:25:25.025Z,99.90
2018-06-03T02:26:28.287Z,99.90
2018-06-03T02:27:31.505Z,99.90
2018-06-03T02:28:34.723Z,99.90
2018-06-03T02:29:39.423Z,99.90
2018-06-03T02:30:43.468Z,99.90
2018-06-03T02:31:46.676Z,99.90
2018-06-03T02:32:49.894Z,99.90
2018-06-03T02:33:53.215Z,99.90
2018-06-03T02:34:56.467Z,99.90
2018-06-03T02:35:59.668Z,99.90
2018-06-03T02:37:02.885Z,99.90
2018-06-03T02:38:06.115Z,99.90
2018-06-03T02:39:09.346Z,99.90
2018-06-03T02:40:12.576Z,99.90
2018-06-03T02:41:16.575Z,99.90
2018-06-03T02:42:19.802Z,99.90
2018-06-03T02:43:23.035Z,99.90
2018-06-03T02:44:26.248Z,99.90
2018-06-03T02:45:29.479Z,99.90
2018-06-03T02:46:32.691Z,99.90
2018-06-03T02:47:36.684Z,99.90
2018-06-03T02:48:39.892Z,99.90
2018-06-03T02:49:43.859Z,99.90
2018-06-03T02:50:47.120Z,99.90
2018-06-03T02:51:50.332Z,99.90
2018-06-03T02:52:53.549Z,99.90
2018-06-03T02:53:56.862Z,99.90
2018-06-03T02:55:00.108Z,99.90
2018-06-03T02:56:04.131Z,99.90
2018-06-03T02:57:07.359Z,99.90
2018-06-03T02:58:10.585Z,99.90
2018-06-03T02:59:13.808Z,99.90
2018-06-03T03:00:17.033Z,99.90
2018-06-03T03:01:21.026Z,99.90
2018-06-03T03:02:25.050Z,99.90
2018-06-03T03:03:28.249Z,99.90
2018-06-03T03:04:31.483Z,99.90
2018-06-03T03:05:35.517Z,99.90
2018-06-03T03:06:38.797Z,99.90
2018-06-03T03:07:42.043Z,99.90
2018-06-03T03:08:45.263Z,99.90
2018-06-03T03:09:48.470Z,99.90
2018-06-03T03:10:51.716Z,99.90
2018-06-03T03:11:54.930Z,99.90
2018-06-03T03:12:58.129Z,99.90
2018-06-03T03:14:01.358Z,99.90
2018-06-03T03:15:05.340Z,99.90
2018-06-03T03:16:08.561Z,99.90
2018-06-03T03:17:11.819Z,99.90
2018-06-03T03:18:15.097Z,99.90
2018-06-03T03:19:18.284Z,99.90
2018-06-03T03:20:22.262Z,99.90
2018-06-03T03:21:25.527Z,99.90
2018-06-03T03:22:28.751Z,99.90
2018-06-03T03:23:32.792Z,99.90
2018-06-03T03:24:36.057Z,99.90
2018-06-03T03:25:39.357Z,99.90
2018-06-03T03:26:42.565Z,99.90
2018-06-03T03:27:45.830Z,99.90
2018-06-03T03:28:49.069Z,99.90
2018-06-03T03:29:53.031Z,99.90
2018-06-03T03:30:56.250Z,99.90
2018-06-03T03:32:00.229Z,99.90
2018-06-03T03:33:03.438Z,99.90
2018-06-03T03:34:07.427Z,99.90
2018-06-03T03:35:11.442Z,99.90
2018-06-03T03:36:15.509Z,99.90
2018-06-03T03:37:18.818Z,99.90
2018-06-03T03:38:21.997Z,99.90
2018-06-03T03:39:25.231Z,99.90
2018-06-03T03:40:28.440Z,99.90
2018-06-03T03:41:31.654Z,99.90
2018-06-03T03:42:34.860Z,99.90
2018-06-03T03:43:38.066Z,99.90
2018-06-03T03:44:41.275Z,99.90
2018-06-03T03:45:45.271Z,99.90
2018-06-03T03:46:48.467Z,99.90
2018-06-03T03:47:51.730Z,99.90
2018-06-03T03:48:54.978Z,99.90
2018-06-03T03:49:58.197Z,99.90
2018-06-03T03:51:01.439Z,99.90
2018-06-03T03:52:05.443Z,99.90
2018-06-03T03:53:08.664Z,99.90
2018-06-03T03:54:11.899Z,99.90
2018-06-03T03:55:15.148Z,99.90
2018-06-03T03:56:18.364Z,99.90
2018-06-03T03:57:21.574Z,99.90
2018-06-03T03:58:24.817Z,99.90
2018-06-03T03:59:28.796Z,99.90
2018-06-03T04:00:32.014Z,99.90
2018-06-03T04:01:35.237Z,99.90
2018-06-03T04:02:38.435Z,99.90
2018-06-03T04:03:41.650Z,99.90
2018-06-03T04:04:45.669Z,99.90
2018-06-03T04:05:48.896Z,99.90
2018-06-03T04:06:53.665Z,99.90
2018-06-03T04:07:56.874Z,99.90
2018-06-03T04:09:00.128Z,99.90
2018-06-03T04:10:03.401Z,99.90
2018-06-03T04:11:07.387Z,99.90
2018-06-03T04:12:10.602Z,99.90
2018-06-03T04:13:13.893Z,99.90
2018-06-03T04:14:17.107Z,99.90
2018-06-03T04:15:20.336Z,99.90
2018-06-03T04:16:24.341Z,99.90
2018-06-03T04:17:28.320Z,99.90
2018-06-03T04:18:31.528Z,99.90
2018-06-03T04:19:34.787Z,99.90
2018-06-03T04:20:38.794Z,99.90
2018-06-03T04:21:42.757Z,99.90
2018-06-03T04:22:46.814Z,99.90
2018-06-03T04:23:50.054Z,99.90
2018-06-03T04:24:53.242Z,99.90
2018-06-03T04:25:56.458Z,99.90
2018-06-03T04:26:59.669Z,99.90
2018-06-03T04:28:02.922Z,99.90
2018-06-03T04:29:06.923Z,99.90
2018-06-03T04:30:10.256Z,99.90
2018-06-03T04:31:13.491Z,99.90
2018-06-03T04:32:17.483Z,99.90
2018-06-03T04:33:21.474Z,99.90
2018-06-03T04:34:25.503Z,99.90
2018-06-03T04:35:29.475Z,99.90
2018-06-03T04:36:33.465Z,99.90
2018-06-03T04:37:38.180Z,99.90
2018-06-03T04:38:41.396Z,99.90
2018-06-03T04:39:44.752Z,99.90
2018-06-03T04:40:47.986Z,99.90
2018-06-03T04:41:51.208Z,99.90
2018-06-03T04:42:54.428Z,99.90
2018-06-03T04:43:57.657Z,99.90
2018-06-03T04:45:00.878Z,99.90
2018-06-03T04:46:04.866Z,99.90
2018-06-03T04:47:08.875Z,99.90
2018-06-03T04:48:12.871Z,99.90
2018-06-03T04:49:16.867Z,99.90
2018-06-03T04:50:20.080Z,99.90
2018-06-03T04:51:23.334Z,99.90
2018-06-03T04:52:26.558Z,99.90
2018-06-03T04:53:29.803Z,99.90
2018-06-03T04:54:33.854Z,99.90
2018-06-03T04:55:37.046Z,99.90
2018-06-03T04:56:40.285Z,99.90
2018-06-03T04:57:44.297Z,99.90
2018-06-03T04:58:47.575Z,99.90
2018-06-03T04:59:50.812Z,99.90
2018-06-03T05:00:54.040Z,99.90
2018-06-03T05:01:58.030Z,99.90
2018-06-03T05:03:02.046Z,99.90
2018-06-03T05:04:05.334Z,99.90
2018-06-03T05:05:08.561Z,99.90
2018-06-03T05:06:11.814Z,99.90
2018-06-03T05:07:15.090Z,99.90
2018-06-03T05:08:18.322Z,99.90
2018-06-03T05:09:21.567Z,99.90
2018-06-03T05:10:24.786Z,99.90
2018-06-03T05:11:28.038Z,99.90
2018-06-03T05:12:31.247Z,99.90
2018-06-03T05:13:34.479Z,99.90
2018-06-03T05:14:37.718Z,99.90
2018-06-03T05:15:40.910Z,99.90
2018-06-03T05:16:44.131Z,99.90
2018-06-03T05:17:47.406Z,99.90
2018-06-03T05:18:50.586Z,99.90
2018-06-03T05:19:53.868Z,99.90
2018-06-03T05:20:57.849Z,99.90
2018-06-03T05:22:01.051Z,99.90
2018-06-03T05:23:04.298Z,99.90
2018-06-03T05:24:07.534Z,99.90
2018-06-03T05:25:10.755Z,99.90
2018-06-03T05:26:14.015Z,99.90
2018-06-03T05:27:17.278Z,99.90
2018-06-03T05:28:20.510Z,99.90
2018-06-03T05:29:23.735Z,99.90
2018-06-03T05:30:26.972Z,99.90
2018-06-03T05:31:30.207Z,99.90
2018-06-03T05:32:33.431Z,99.90
2018-06-03T05:33:36.654Z,99.90
2018-06-03T05:34:40.632Z,99.90
2018-06-03T05:35:43.904Z,99.90
2018-06-03T05:36:47.135Z,99.90
2018-06-03T05:37:51.121Z,99.90
2018-06-03T05:38:55.111Z,99.90
2018-06-03T05:39:59.090Z,99.90
2018-06-03T05:41:02.415Z,99.90
2018-06-03T05:42:05.631Z,99.90
2018-06-03T05:43:08.846Z,99.90
2018-06-03T05:44:12.052Z,99.90
2018-06-03T05:45:16.083Z,99.90
2018-06-03T05:46:19.333Z,99.90
2018-06-03T05:47:22.594Z,99.90
2018-06-03T05:48:25.914Z,99.90
2018-06-03T05:49:29.191Z,99.90
2018-06-03T05:50:33.187Z,99.90
2018-06-03T05:51:37.202Z,99.90
2018-06-03T05:52:41.177Z,99.90
2018-06-03T05:53:44.422Z,99.90
2018-06-03T05:54:47.642Z,99.90
2018-06-03T05:55:50.884Z,99.90
2018-06-03T05:56:54.088Z,99.90
2018-06-03T05:57:57.301Z,99.90
2018-06-03T05:59:01.291Z,99.90
2018-06-03T06:00:05.280Z,99.90
2018-06-03T06:01:08.498Z,99.80
2018-06-03T06:02:12.469Z,99.80
2018-06-03T06:03:15.678Z,99.80
2018-06-03T06:04:19.655Z,99.70
2018-06-03T06:05:22.973Z,99.60
2018-06-03T06:06:26.959Z,99.40
2018-06-03T06:07:30.973Z,99.40
2018-06-03T06:08:34.184Z,99.30
2018-06-03T06:09:37.436Z,99.20
2018-06-03T06:10:40.667Z,99.20
2018-06-03T06:11:43.905Z,99.20
2018-06-03T06:12:47.126Z,99.20
2018-06-03T06:13:50.368Z,99.20
2018-06-03T06:14:57.698Z,99.30
2018-06-03T06:16:00.894Z,99.20
2018-06-03T06:17:04.151Z,99.20
2018-06-03T06:18:07.366Z,99.20
2018-06-03T06:19:11.356Z,99.20
2018-06-03T06:20:14.631Z,99.20
2018-06-03T06:21:17.807Z,99.20
2018-06-03T06:22:21.014Z,99.20
2018-06-03T06:23:25.040Z,99.30
2018-06-03T06:24:29.754Z,99.20
2018-06-03T06:25:33.733Z,99.10
2018-06-03T06:26:37.055Z,99.10
2018-06-03T06:27:41.036Z,99.10
2018-06-03T06:28:45.128Z,99.00
2018-06-03T06:29:49.129Z,99.10
2018-06-03T06:30:52.482Z,99.00
2018-06-03T06:31:55.661Z,99.10
2018-06-03T06:32:58.874Z,99.10
2018-06-03T06:34:02.853Z,99.20
2018-06-03T06:35:06.081Z,99.00
2018-06-03T06:36:09.321Z,98.80
2018-06-03T06:37:12.558Z,98.70
2018-06-03T06:38:15.883Z,98.50
2018-06-03T06:39:20.000Z,98.30
2018-06-03T06:40:23.244Z,98.30
2018-06-03T06:41:26.458Z,98.20
2018-06-03T06:42:29.673Z,98.20
2018-06-03T06:43:33.701Z,98.10
2018-06-03T06:44:36.916Z,98.10
2018-06-03T06:45:40.194Z,98.20
2018-06-03T06:46:43.396Z,98.10
2018-06-03T06:47:46.650Z,98.00
2018-06-03T06:48:49.903Z,98.00
2018-06-03T06:49:53.118Z,98.00
2018-06-03T06:50:56.341Z,98.10
2018-06-03T06:51:59.549Z,98.00
2018-06-03T06:53:02.837Z,97.90
2018-06-03T06:54:06.064Z,97.60
2018-06-03T06:55:09.320Z,97.40
2018-06-03T06:56:12.529Z,97.50
2018-06-03T06:57:15.724Z,97.50
2018-06-03T06:58:18.953Z,97.60
2018-06-03T06:59:22.270Z,97.70
2018-06-03T07:01:03.618Z,97.60
2018-06-03T07:02:08.266Z,97.50
2018-06-03T07:03:12.441Z,97.60
2018-06-03T07:04:16.485Z,97.50
2018-06-03T07:05:22.026Z,97.60
2018-06-03T07:06:26.704Z,97.60
2018-06-03T07:08:59.776Z,97.60
2018-06-03T07:10:03.850Z,97.50
2018-06-03T07:11:07.986Z,97.50
2018-06-03T07:12:11.990Z,97.50
2018-06-03T07:13:16.062Z,97.50
2018-06-03T07:14:20.067Z,97.50
2018-06-03T07:15:24.117Z,97.60
2018-06-03T07:16:28.087Z,97.60
2018-06-03T07:17:32.123Z,97.40
2018-06-03T07:18:36.150Z,97.20
2018-06-03T07:19:40.240Z,97.10
2018-06-03T07:20:44.324Z,97.00
2018-06-03T07:21:48.363Z,96.90
2018-06-03T07:22:52.384Z,96.90
2018-06-03T07:23:56.563Z,96.80
2018-06-03T07:25:00.582Z,96.80
2018-06-03T07:26:04.608Z,97.00
2018-06-03T07:27:08.626Z,97.00
2018-06-03T07:28:12.891Z,97.10
2018-06-03T07:29:17.016Z,97.10
2018-06-03T07:30:21.164Z,97.20
2018-06-03T07:31:25.193Z,97.00
2018-06-03T07:32:29.223Z,96.90
2018-06-03T07:33:33.334Z,96.80
2018-06-03T07:35:41.214Z,96.60
2018-06-03T07:36:45.204Z,96.60
2018-06-03T07:38:53.095Z,96.60
2018-06-03T07:39:57.203Z,96.80
2018-06-03T07:41:01.464Z,96.60
2018-06-03T07:42:05.707Z,96.90
2018-06-03T07:43:09.760Z,97.10
2018-06-03T07:44:13.950Z,97.00
2018-06-03T07:46:21.723Z,97.00
2018-06-03T07:47:25.835Z,96.60
2018-06-03T07:48:30.009Z,96.70
2018-06-03T07:49:34.256Z,96.70
2018-06-03T07:50:38.350Z,96.60
2018-06-03T07:51:42.388Z,96.60
2018-06-03T07:52:46.457Z,96.50
2018-06-03T07:53:50.535Z,96.60
2018-06-03T07:54:54.568Z,96.70
2018-06-03T07:55:58.607Z,96.60
2018-06-03T07:57:02.877Z,96.70
2018-06-03T07:58:06.988Z,96.50
2018-06-03T07:59:10.979Z,96.50
2018-06-03T08:00:15.034Z,96.60
2018-06-03T08:01:19.085Z,97.00
2018-06-03T08:02:23.126Z,96.80
2018-06-03T08:03:27.151Z,97.00
2018-06-03T08:04:31.211Z,96.60
2018-06-03T08:05:35.248Z,96.90
2018-06-03T08:06:39.493Z,96.70
2018-06-03T08:07:43.673Z,96.60
2018-06-03T08:09:51.292Z,96.20
2018-06-03T08:10:55.853Z,96.10
2018-06-03T08:11:59.913Z,95.90
2018-06-03T08:13:04.041Z,95.80
2018-06-03T08:14:08.033Z,96.00
2018-06-03T08:15:12.090Z,96.50
2018-06-03T08:16:16.189Z,96.40
2018-06-03T08:18:24.036Z,96.30
2018-06-03T08:19:28.082Z,96.30
2018-06-03T08:20:32.154Z,96.40
2018-06-03T08:21:36.251Z,96.40
2018-06-03T08:22:40.469Z,96.40
2018-06-03T08:23:44.491Z,96.50
2018-06-03T08:24:48.652Z,96.40
2018-06-03T08:25:52.800Z,96.30
2018-06-03T08:26:56.849Z,96.40
2018-06-03T08:28:00.903Z,96.30
2018-06-03T08:29:05.117Z,96.00
2018-06-03T08:30:09.166Z,95.90
2018-06-03T08:31:13.204Z,96.00
2018-06-03T08:32:17.211Z,96.00
2018-06-03T08:33:27.730Z,95.90
2018-06-03T08:34:31.837Z,95.60
2018-06-03T08:35:35.944Z,95.10
2018-06-03T08:36:40.031Z,94.90
2018-06-03T08:37:44.103Z,94.80
2018-06-03T08:38:48.143Z,94.80
2018-06-03T08:39:52.160Z,94.80
2018-06-03T08:40:56.209Z,94.90
2018-06-03T08:42:00.345Z,95.00
2018-06-03T08:43:04.383Z,95.10
2018-06-03T08:44:08.389Z,95.20
2018-06-03T08:45:12.472Z,95.40
2018-06-03T08:46:16.491Z,95.60
2018-06-03T08:47:20.540Z,95.50
2018-06-03T08:48:24.676Z,95.30
2018-06-03T08:49:28.696Z,95.30
2018-06-03T08:50:32.795Z,95.10
2018-06-03T08:51:36.819Z,95.10
2018-06-03T08:52:40.934Z,95.10
2018-06-03T08:53:44.974Z,95.30
2018-06-03T08:54:49.023Z,95.60
2018-06-03T08:55:53.172Z,95.20
2018-06-03T08:56:57.213Z,95.20
2018-06-03T08:58:01.212Z,95.10
2018-06-03T08:59:05.309Z,94.90
2018-06-03T09:00:09.311Z,94.90
2018-06-03T09:01:13.326Z,94.70
2018-06-03T09:02:17.532Z,94.60
2018-06-03T09:03:21.578Z,94.60
2018-06-03T09:04:25.643Z,94.60
2018-06-03T09:05:29.673Z,94.60
2018-06-03T09:06:33.870Z,94.60
2018-06-03T09:07:37.882Z,94.60
2018-06-03T09:08:41.993Z,94.40
2018-06-03T09:09:46.093Z,94.50
2018-06-03T09:10:50.222Z,94.50
2018-06-03T09:11:54.354Z,94.60
2018-06-03T09:12:58.374Z,94.70
2018-06-03T09:15:06.323Z,94.10
2018-06-03T09:16:10.352Z,94.30
2018-06-03T09:17:14.415Z,94.30
2018-06-03T09:18:18.502Z,94.30
2018-06-03T09:19:22.642Z,94.40
2018-06-03T09:20:26.693Z,94.50
2018-06-03T09:21:31.573Z,94.60
2018-06-03T09:22:35.639Z,94.70
2018-06-03T09:23:39.675Z,94.80
2018-06-03T09:24:43.696Z,94.80
2018-06-03T09:25:47.758Z,94.70
2018-06-03T09:26:51.827Z,94.60
2018-06-03T09:27:55.905Z,94.20
2018-06-03T09:28:59.996Z,93.80
2018-06-03T09:30:04.202Z,93.20
2018-06-03T09:31:08.282Z,93.00
2018-06-03T09:32:12.410Z,92.70
2018-06-03T09:33:16.525Z,93.00
2018-06-03T09:34:20.621Z,92.80
2018-06-03T09:35:24.927Z,92.70
2018-06-03T09:36:28.985Z,92.80
2018-06-03T09:37:33.032Z,92.70
2018-06-03T09:38:37.083Z,92.10
2018-06-03T09:39:41.191Z,91.80
2018-06-03T09:40:45.265Z,92.00
2018-06-03T09:41:49.347Z,92.70
2018-06-03T09:42:53.451Z,92.60
2018-06-03T09:43:57.471Z,92.40
2018-06-03T09:45:01.489Z,92.20
2018-06-03T09:46:05.652Z,92.20
2018-06-03T09:47:09.692Z,92.20
2018-06-03T09:48:13.833Z,92.20
2018-06-03T09:49:17.900Z,92.20
2018-06-03T09:50:22.005Z,92.40
2018-06-03T09:51:26.103Z,92.50
2018-06-03T09:52:30.155Z,92.70
2018-06-03T09:53:40.708Z,92.70
2018-06-03T09:54:44.806Z,92.50
2018-06-03T09:55:48.972Z,92.40
2018-06-03T09:56:53.176Z,92.40
2018-06-03T09:57:57.214Z,92.20
2018-06-03T09:59:01.362Z,91.70
2018-06-03T10:00:05.437Z,91.60
2018-06-03T10:01:09.399Z,91.80
2018-06-03T10:02:13.433Z,91.90
2018-06-03T10:03:17.510Z,92.10
2018-06-03T10:04:21.559Z,92.10
2018-06-03T10:05:25.757Z,92.30
2018-06-03T10:06:29.809Z,92.20
2018-06-03T10:07:33.863Z,91.70
2018-06-03T10:08:37.950Z,91.60
2018-06-03T10:09:41.998Z,91.50
2018-06-03T10:10:46.093Z,91.40
2018-06-03T10:11:50.103Z,91.00
2018-06-03T10:12:54.176Z,91.30
2018-06-03T10:13:58.335Z,91.30
2018-06-03T10:15:02.558Z,91.50
2018-06-03T10:16:06.732Z,91.50
2018-06-03T10:17:10.749Z,91.30
2018-06-03T10:18:14.904Z,91.40
2018-06-03T10:19:18.971Z,91.70
2018-06-03T10:20:23.080Z,91.90
2018-06-03T10:21:27.172Z,91.90
2018-06-03T10:22:31.210Z,92.00
2018-06-03T10:23:35.341Z,92.20
2018-06-03T10:24:39.452Z,92.10
2018-06-03T10:25:43.902Z,91.90
2018-06-03T10:26:47.979Z,91.90
2018-06-03T10:27:52.124Z,91.90
2018-06-03T10:28:56.153Z,91.80
2018-06-03T10:30:00.191Z,91.80
2018-06-03T10:31:04.204Z,91.80
2018-06-03T10:32:08.380Z,91.50
2018-06-03T10:33:12.636Z,91.10
2018-06-03T10:34:16.690Z,91.00
2018-06-03T10:35:20.744Z,91.50
2018-06-03T10:36:24.776Z,91.70
2018-06-03T10:37:28.771Z,91.90
2018-06-03T10:38:32.963Z,91.90
2018-06-03T10:39:36.976Z,91.60
2018-06-03T10:40:41.060Z,91.60
2018-06-03T10:41:45.108Z,92.00
2018-06-03T10:44:56.593Z,91.40
2018-06-03T10:46:00.623Z,91.20
2018-06-03T10:47:04.825Z,91.10
2018-06-03T10:48:09.018Z,90.70
2018-06-03T10:49:13.048Z,90.60
2018-06-03T10:50:17.114Z,90.60
2018-06-03T10:51:21.184Z,90.80
2018-06-03T10:52:25.215Z,91.10
2018-06-03T10:53:29.278Z,90.90
2018-06-03T10:54:33.345Z,90.80
2018-06-03T10:55:37.386Z,90.60
2018-06-03T10:56:41.416Z,90.90
2018-06-03T10:57:45.467Z,90.70
2018-06-03T10:58:49.486Z,90.50
2018-06-03T10:59:53.587Z,90.20
2018-06-03T11:00:57.565Z,89.10
2018-06-03T11:02:01.718Z,88.40
2018-06-03T11:03:05.885Z,89.50
2018-06-03T11:04:09.894Z,89.10
2018-06-03T11:05:13.886Z,88.90
2018-06-03T11:06:17.902Z,89.10
2018-06-03T11:07:21.900Z,88.80
2018-06-03T11:09:29.636Z,89.90
2018-06-03T11:10:33.658Z,89.60
2018-06-03T11:11:37.643Z,89.90
2018-06-03T11:12:41.634Z,89.30
2018-06-03T11:13:45.876Z,89.70
2018-06-03T11:14:49.890Z,89.90
2018-06-03T11:15:53.919Z,90.00
2018-06-03T11:16:57.954Z,89.20
2018-06-03T11:18:02.064Z,88.60
2018-06-03T11:19:06.075Z,88.30
2018-06-03T11:20:10.071Z,88.40
2018-06-03T11:21:14.150Z,88.80
2018-06-03T11:22:18.232Z,87.90
2018-06-03T11:23:22.329Z,88.80
2018-06-03T11:24:26.497Z,88.70
2018-06-03T11:25:30.472Z,88.20
2018-06-03T11:26:34.627Z,88.30
2018-06-03T11:27:38.760Z,87.00
2018-06-03T11:29:46.526Z,87.50
2018-06-03T11:30:50.574Z,85.70
2018-06-03T11:31:54.646Z,84.90
2018-06-03T11:32:59.016Z,84.50
2018-06-03T11:34:03.007Z,84.40
2018-06-03T11:35:07.199Z,84.80
2018-06-03T11:36:11.264Z,85.00
2018-06-03T11:37:15.342Z,85.60
2018-06-03T11:38:19.364Z,86.10
2018-06-03T11:39:23.387Z,85.90
2018-06-03T11:40:27.451Z,86.00
2018-06-03T11:41:31.630Z,85.10
2018-06-03T11:42:35.748Z,84.60
2018-06-03T11:43:39.845Z,84.80
2018-06-03T11:44:43.876Z,84.50
2018-06-03T11:45:47.915Z,84.70
2018-06-03T11:46:51.961Z,84.60
2018-06-03T11:47:55.994Z,84.00
2018-06-03T11:49:00.166Z,83.70
2018-06-03T11:50:04.200Z,83.40
2018-06-03T11:51:08.204Z,82.80
2018-06-03T11:54:19.530Z,81.90
2018-06-03T11:55:23.513Z,81.80
2018-06-03T11:56:38.952Z,81.70
2018-06-03T11:57:57.894Z,81.80
2018-06-03T11:59:12.362Z,78.90
2018-06-03T12:00:27.104Z,79.70
2018-06-03T12:02:39.157Z,81.30
2018-06-03T12:03:47.756Z,81.80
2018-06-03T12:04:54.935Z,80.90
2018-06-03T12:06:04.442Z,80.90
2018-06-03T12:07:17.975Z,80.60
2018-06-03T12:08:25.713Z,79.60
2018-06-03T12:09:36.124Z,79.60
2018-06-03T12:10:46.648Z,80.10
2018-06-03T12:11:53.135Z,80.30
2018-06-03T12:13:08.815Z,79.00
2018-06-03T12:15:30.995Z,77.80
2018-06-03T12:16:58.064Z,78.10
2018-06-03T12:18:08.723Z,79.00
2018-06-03T12:20:26.429Z,79.30
2018-06-03T12:21:36.717Z,79.50
2018-06-03T12:22:44.680Z,78.20
2018-06-03T12:24:59.474Z,77.90
2018-06-03T12:26:08.156Z,77.60
2018-06-03T12:27:18.294Z,75.30
2018-06-03T12:28:39.765Z,74.30
2018-06-03T12:29:46.075Z,75.80
2018-06-03T12:30:54.801Z,75.20
2018-06-03T12:32:04.780Z,74.90
2018-06-03T12:33:11.300Z,73.50
2018-06-03T12:35:26.271Z,73.40
2018-06-03T12:36:33.248Z,73.00
2018-06-03T12:37:44.540Z,74.10
2018-06-03T12:38:55.095Z,73.70
2018-06-03T12:40:12.204Z,72.30
2018-06-03T12:41:20.770Z,71.40
2018-06-03T12:42:28.979Z,72.50
2018-06-03T12:43:35.098Z,71.50
2018-06-03T12:45:57.054Z,71.50
2018-06-03T12:47:09.324Z,72.60
2018-06-03T12:48:15.163Z,73.70
2018-06-03T12:49:23.805Z,73.00
2018-06-03T12:50:33.091Z,71.90
2018-06-03T12:51:46.108Z,71.20
2018-06-03T12:52:57.593Z,67.50
2018-06-03T12:55:19.676Z,69.50
2018-06-03T12:56:26.928Z,68.80
2018-06-03T12:57:33.860Z,67.60
2018-06-03T12:58:39.943Z,67.90
2018-06-03T12:59:46.403Z,67.30
2018-06-03T13:02:09.247Z,68.20
2018-06-03T13:03:21.936Z,68.20
2018-06-03T13:04:34.881Z,67.90
2018-06-03T13:05:44.433Z,67.30
2018-06-03T13:06:51.668Z,66.40
2018-06-03T13:08:00.012Z,66.30
2018-06-03T13:09:07.866Z,66.40
2018-06-03T13:10:14.158Z,66.20
2018-06-03T13:11:21.393Z,66.00
2018-06-03T13:12:27.852Z,66.90
2018-06-03T13:13:35.324Z,67.40
2018-06-03T13:14:42.301Z,66.70
2018-06-03T13:15:51.772Z,66.50
2018-06-03T13:16:59.448Z,66.50
2018-06-03T13:18:05.708Z,66.90
2018-06-03T13:19:14.796Z,66.40
2018-06-03T13:20:21.763Z,66.60
2018-06-03T13:21:28.899Z,66.70
2018-06-03T13:22:36.597Z,67.40
2018-06-03T13:23:45.029Z,67.80
2018-06-03T13:24:55.634Z,67.30
2018-06-03T13:26:02.295Z,68.00
2018-06-03T13:27:12.410Z,68.00
2018-06-03T13:28:20.239Z,68.70
2018-06-03T13:29:29.709Z,66.60
2018-06-03T13:30:46.703Z,65.50
2018-06-03T13:31:56.683Z,64.70
2018-06-03T13:33:03.347Z,63.00
2018-06-03T13:34:11.053Z,62.20
2018-06-03T13:35:19.100Z,62.10
2018-06-03T13:37:43.331Z,61.30
2018-06-03T13:38:50.974Z,61.20
2018-06-03T13:39:58.277Z,61.20
2018-06-03T13:41:05.980Z,60.40
2018-06-03T13:42:12.851Z,60.40
2018-06-03T13:43:20.129Z,60.70
2018-06-03T13:44:31.894Z,60.70
2018-06-03T13:45:37.547Z,60.60
2018-06-03T13:46:43.549Z,60.00
2018-06-03T13:47:48.781Z,59.20
2018-06-03T13:48:55.340Z,59.40
2018-06-03T13:50:04.285Z,60.20
2018-06-03T13:52:16.911Z,61.00
2018-06-03T13:53:23.317Z,60.90
2018-06-03T13:54:30.271Z,61.90
2018-06-03T13:55:43.764Z,62.50
2018-06-03T13:56:52.050Z,62.40
2018-06-03T13:57:59.941Z,62.10
2018-06-03T13:59:07.788Z,61.00
2018-06-03T14:00:15.737Z,60.90
2018-06-03T14:01:24.859Z,59.90
2018-06-03T14:02:35.881Z,59.30
2018-06-03T14:04:51.196Z,58.60
2018-06-03T14:05:58.988Z,58.10
2018-06-03T14:07:07.446Z,57.90
2018-06-03T14:08:18.341Z,57.40
2018-06-03T14:09:24.407Z,57.10
2018-06-03T14:10:34.032Z,56.50
2018-06-03T14:11:41.198Z,56.50
2018-06-03T14:12:49.919Z,56.60
2018-06-03T14:14:00.680Z,56.20
2018-06-03T14:15:17.117Z,56.30
2018-06-03T14:17:35.748Z,56.40
2018-06-03T14:18:40.964Z,55.80
2018-06-03T14:19:47.416Z,55.90
2018-06-03T14:20:55.290Z,56.00